createdAt,value
2023-05-07T00:00:32.700Z,15.68
2023-05-07T00:03:00.368Z,15.27
2023-05-07T00:05:28.506Z,14.70
2023-05-07T00:07:57.035Z,15.70
2023-05-07T00:10:27.092Z,13.18
2023-05-07T00:12:54.783Z,13.93
2023-05-07T00:15:22.164Z,15.23
2023-05-07T00:17:49.452Z,12.88
2023-05-07T00:20:16.871Z,14.18
2023-05-07T00:22:44.665Z,14.70
2023-05-07T00:25:12.121Z,14.70
2023-05-07T00:27:39.605Z,15.30
2023-05-07T00:30:07.536Z,15.93
2023-05-07T00:32:35.152Z,12.27
2023-05-07T00:35:02.550Z,17.70
2023-05-07T00:37:31.195Z,17.33
2023-05-07T00:39:58.778Z,14.10
2023-05-07T00:42:26.279Z,16.85
2023-05-07T00:44:53.731Z,15.27
2023-05-07T00:47:21.386Z,13.60
2023-05-07T00:49:49.952Z,15.27
2023-05-07T00:52:18.709Z,14.43
2023-05-07T00:54:46.476Z,13.15
2023-05-07T00:57:14.634Z,18.05
2023-05-07T00:59:42.815Z,14.90
2023-05-07T01:02:10.311Z,14.45
2023-05-07T01:04:38.077Z,16.27
2023-05-07T01:07:07.115Z,14.10
2023-05-07T01:09:36.548Z,13.75
2023-05-07T01:12:05.276Z,16.13
2023-05-07T01:14:34.210Z,13.35
2023-05-07T01:17:01.691Z,11.38
2023-05-07T01:19:31.547Z,14.02
2023-05-07T01:22:04.953Z,14.32
2023-05-07T01:24:33.922Z,14.23
2023-05-07T01:27:02.660Z,15.18
2023-05-07T01:29:30.327Z,15.48
2023-05-07T01:32:00.966Z,17.25
2023-05-07T01:34:33.282Z,16.20
2023-05-07T01:37:01.396Z,14.10
2023-05-07T01:39:30.334Z,13.05
2023-05-07T01:41:58.113Z,13.88
2023-05-07T01:44:26.223Z,17.08
2023-05-07T01:46:53.852Z,16.00
2023-05-07T01:49:21.138Z,12.93
2023-05-07T01:51:48.915Z,15.38
2023-05-07T01:54:16.764Z,14.23
2023-05-07T01:56:44.632Z,13.15
2023-05-07T01:59:12.051Z,16.60
2023-05-07T02:01:39.838Z,16.05
2023-05-07T02:04:10.835Z,12.57
2023-05-07T02:06:38.627Z,12.27
2023-05-07T02:09:06.188Z,13.68
2023-05-07T02:11:33.395Z,14.10
2023-05-07T02:14:00.555Z,16.85
2023-05-07T02:16:27.851Z,16.60
2023-05-07T02:18:55.405Z,17.88
2023-05-07T02:21:22.860Z,16.88
2023-05-07T02:23:50.094Z,16.75
2023-05-07T02:26:17.478Z,15.32
2023-05-07T02:28:44.987Z,13.23
2023-05-07T02:31:12.610Z,18.80
2023-05-07T02:33:40.050Z,14.35
2023-05-07T02:36:09.266Z,16.50
2023-05-07T02:38:36.641Z,14.13
2023-05-07T02:41:04.662Z,14.15
2023-05-07T02:43:32.030Z,14.05
2023-05-07T02:46:06.784Z,20.52
2023-05-07T02:48:34.916Z,15.82
2023-05-07T02:51:03.239Z,18.00
2023-05-07T02:53:30.985Z,15.30
2023-05-07T02:56:02.724Z,14.45
2023-05-07T02:58:30.395Z,13.25
2023-05-07T03:00:57.895Z,16.20
2023-05-07T03:03:25.427Z,18.33
2023-05-07T03:05:53.026Z,16.73
2023-05-07T03:08:23.307Z,15.88
2023-05-07T03:10:50.709Z,18.35
2023-05-07T03:13:18.727Z,18.70
2023-05-07T03:15:46.858Z,13.98
2023-05-07T03:18:14.608Z,20.80
2023-05-07T03:20:42.285Z,17.48
2023-05-07T03:23:09.808Z,17.40
2023-05-07T03:25:37.295Z,15.38
2023-05-07T03:28:04.978Z,16.90
2023-05-07T03:30:32.573Z,15.43
2023-05-07T03:32:59.938Z,13.40
2023-05-07T03:35:27.631Z,18.65
2023-05-07T03:37:55.521Z,17.75
2023-05-07T03:40:22.855Z,17.77
2023-05-07T03:42:50.276Z,13.90
2023-05-07T03:45:17.846Z,19.45
2023-05-07T03:47:45.053Z,15.52
2023-05-07T03:50:12.473Z,18.63
2023-05-07T03:52:40.186Z,19.02
2023-05-07T03:55:08.771Z,22.55
2023-05-07T03:57:36.041Z,17.50
2023-05-07T04:00:05.172Z,17.85
2023-05-07T04:02:35.661Z,18.30
2023-05-07T04:05:03.037Z,19.40
2023-05-07T04:07:30.694Z,17.30
2023-05-07T04:09:58.573Z,17.23
2023-05-07T04:12:26.147Z,15.38
2023-05-07T04:14:53.713Z,19.40
2023-05-07T04:17:21.423Z,15.38
2023-05-07T04:19:48.952Z,19.73
2023-05-07T04:22:16.354Z,17.52
2023-05-07T04:24:43.698Z,15.57
2023-05-07T04:27:11.036Z,22.38
2023-05-07T04:29:38.438Z,19.33
2023-05-07T04:32:06.245Z,18.88
2023-05-07T04:34:33.729Z,18.83
2023-05-07T04:37:02.834Z,18.92
2023-05-07T04:39:35.172Z,23.27
2023-05-07T04:42:02.523Z,22.75
2023-05-07T04:44:32.329Z,18.73
2023-05-07T04:47:00.447Z,17.65
2023-05-07T04:49:32.323Z,16.83
2023-05-07T04:51:59.790Z,19.10
2023-05-07T04:54:27.880Z,21.63
2023-05-07T04:56:55.410Z,25.25
2023-05-07T04:59:22.969Z,18.30
2023-05-07T05:01:50.562Z,20.27
2023-05-07T05:04:21.155Z,21.92
2023-05-07T05:06:48.370Z,23.00
2023-05-07T05:09:17.149Z,17.25
2023-05-07T05:11:46.889Z,21.55
2023-05-07T05:14:15.390Z,20.27
2023-05-07T05:16:42.591Z,18.45
2023-05-07T05:19:09.579Z,17.50
2023-05-07T05:21:36.484Z,21.50
2023-05-07T05:24:03.818Z,21.08
2023-05-07T05:26:30.873Z,18.45
2023-05-07T05:28:58.071Z,25.58
2023-05-07T05:31:27.346Z,21.98
2023-05-07T05:33:54.548Z,22.23
2023-05-07T05:36:21.719Z,31.70
2023-05-07T05:38:48.666Z,33.38
2023-05-07T05:41:16.848Z,40.03
2023-05-07T05:43:44.508Z,35.88
2023-05-07T05:46:13.169Z,36.80
2023-05-07T05:48:40.194Z,24.63
2023-05-07T05:51:09.746Z,24.08
2023-05-07T05:53:36.996Z,18.65
2023-05-07T05:56:04.333Z,19.00
2023-05-07T05:58:31.357Z,18.25
2023-05-07T06:00:59.271Z,20.95
2023-05-07T06:03:26.577Z,16.13
2023-05-07T06:05:53.676Z,18.80
2023-05-07T06:08:21.055Z,14.95
2023-05-07T06:10:48.232Z,16.65
2023-05-07T06:13:15.542Z,14.75
2023-05-07T06:15:42.601Z,14.43
2023-05-07T06:18:09.727Z,13.38
2023-05-07T06:20:36.739Z,12.40
2023-05-07T06:23:03.919Z,16.65
2023-05-07T06:25:31.043Z,15.88
2023-05-07T06:27:58.037Z,15.63
2023-05-07T06:30:25.235Z,11.45
2023-05-07T06:32:52.327Z,11.13
2023-05-07T06:35:19.456Z,18.55
2023-05-07T06:37:46.824Z,10.65
2023-05-07T06:40:14.241Z,11.38
2023-05-07T06:42:41.498Z,8.60
2023-05-07T06:45:10.113Z,8.93
2023-05-07T06:47:38.182Z,11.88
2023-05-07T06:50:05.565Z,10.50
2023-05-07T06:52:33.017Z,10.30
2023-05-07T06:55:00.889Z,13.98
2023-05-07T06:57:27.992Z,22.73
2023-05-07T06:59:55.114Z,9.85
2023-05-07T07:02:22.255Z,8.20
2023-05-07T07:04:49.411Z,14.30
2023-05-07T07:07:17.668Z,9.63
2023-05-07T07:09:44.604Z,9.15
2023-05-07T07:12:11.871Z,8.95
2023-05-07T07:14:38.927Z,10.68
2023-05-07T07:17:06.486Z,11.15
2023-05-07T07:19:33.627Z,9.25
2023-05-07T07:22:00.773Z,13.38
2023-05-07T07:24:27.814Z,12.27
2023-05-07T07:26:56.550Z,11.05
2023-05-07T07:29:24.116Z,7.18
2023-05-07T07:31:51.416Z,8.20
2023-05-07T07:34:18.484Z,8.15
2023-05-07T07:36:46.964Z,7.25
2023-05-07T07:39:14.673Z,8.90
2023-05-07T07:41:41.771Z,10.27
2023-05-07T07:44:10.005Z,9.57
2023-05-07T07:46:36.988Z,7.57
2023-05-07T07:49:04.041Z,7.43
2023-05-07T07:51:31.740Z,7.20
2023-05-07T07:53:59.138Z,9.98
2023-05-07T07:56:26.818Z,5.28
2023-05-07T07:58:53.880Z,15.27
2023-05-07T08:01:21.180Z,6.72
2023-05-07T08:03:48.923Z,8.75
2023-05-07T08:06:17.587Z,6.70
2023-05-07T08:08:46.346Z,6.78
2023-05-07T08:11:14.544Z,9.48
2023-05-07T08:13:41.748Z,11.07
2023-05-07T08:16:09.024Z,6.07
2023-05-07T08:18:36.676Z,5.47
2023-05-07T08:21:03.862Z,7.28
2023-05-07T08:23:31.571Z,7.32
2023-05-07T08:25:58.781Z,8.38
2023-05-07T08:28:26.248Z,4.18
2023-05-07T08:30:55.338Z,3.80
2023-05-07T08:33:22.637Z,6.45
2023-05-07T08:35:49.682Z,4.63
2023-05-07T08:38:19.655Z,4.38
2023-05-07T08:40:49.166Z,8.77
2023-05-07T08:43:18.658Z,5.38
2023-05-07T08:45:47.168Z,7.07
2023-05-07T08:48:18.376Z,2.63
2023-05-07T08:50:45.621Z,4.28
2023-05-07T08:53:15.893Z,5.15
2023-05-07T08:55:42.995Z,3.95
2023-05-07T08:58:10.566Z,4.82
2023-05-07T09:00:38.233Z,3.13
2023-05-07T09:03:05.410Z,3.88
2023-05-07T09:05:32.612Z,3.03
2023-05-07T09:08:09.561Z,9.25
2023-05-07T09:10:36.728Z,2.75
2023-05-07T09:13:05.088Z,5.38
2023-05-07T09:15:32.352Z,2.70
2023-05-07T09:18:02.609Z,7.13
2023-05-07T09:20:32.453Z,3.42
2023-05-07T09:22:59.625Z,3.80
2023-05-07T09:25:36.534Z,5.80
2023-05-07T09:28:05.717Z,2.70
2023-05-07T09:30:33.383Z,3.33
2023-05-07T09:33:06.727Z,3.45
2023-05-07T09:35:34.175Z,3.92
2023-05-07T09:38:04.102Z,5.70
2023-05-07T09:40:34.035Z,12.70
2023-05-07T09:43:12.418Z,3.60
2023-05-07T09:45:39.651Z,4.35
2023-05-07T09:48:09.777Z,4.60
2023-05-07T09:50:38.219Z,5.30
2023-05-07T09:53:06.646Z,3.00
2023-05-07T09:55:33.910Z,4.82
2023-05-07T09:58:01.631Z,4.60
2023-05-07T10:00:29.522Z,6.43
2023-05-07T10:02:58.763Z,7.13
2023-05-07T10:05:27.125Z,5.93
2023-05-07T10:07:54.691Z,5.00
2023-05-07T10:10:22.610Z,3.33
2023-05-07T10:12:50.746Z,8.68
2023-05-07T10:15:18.302Z,11.82
2023-05-07T10:17:46.375Z,4.50
2023-05-07T10:20:14.414Z,6.50
2023-05-07T10:22:46.979Z,6.93
2023-05-07T10:25:24.389Z,5.72
2023-05-07T10:27:52.163Z,4.43
2023-05-07T10:30:34.960Z,4.03
2023-05-07T10:33:07.548Z,4.35
2023-05-07T10:35:42.353Z,5.85
2023-05-07T10:38:09.837Z,5.60
2023-05-07T10:40:37.432Z,8.05
2023-05-07T10:43:09.287Z,7.70
2023-05-07T10:45:37.961Z,6.88
2023-05-07T10:48:27.852Z,4.78
2023-05-07T10:51:21.824Z,7.07
2023-05-07T10:53:49.120Z,4.38
2023-05-07T10:56:19.912Z,7.63
2023-05-07T10:58:49.485Z,4.07
2023-05-07T11:01:18.116Z,4.80
2023-05-07T11:04:14.428Z,6.05
2023-05-07T11:06:42.019Z,6.65
2023-05-07T11:09:09.089Z,4.18
2023-05-07T11:11:47.944Z,6.05
2023-05-07T11:14:55.099Z,4.45
2023-05-07T11:17:22.306Z,5.38
2023-05-07T11:19:55.724Z,3.13
2023-05-07T11:22:49.693Z,5.13
2023-05-07T11:25:20.388Z,4.88
2023-05-07T11:27:48.139Z,5.45
2023-05-07T11:30:21.578Z,7.75
2023-05-07T11:32:49.890Z,3.47
2023-05-07T11:35:17.910Z,3.85
2023-05-07T11:37:46.362Z,5.65
2023-05-07T11:40:15.207Z,3.15
2023-05-07T11:42:47.094Z,4.82
2023-05-07T11:45:25.919Z,4.72
2023-05-07T11:47:52.948Z,4.90
2023-05-07T11:50:19.953Z,4.13
2023-05-07T11:52:53.934Z,6.82
2023-05-07T11:55:21.199Z,4.50
2023-05-07T11:57:48.987Z,3.60
2023-05-07T12:00:17.611Z,3.10
2023-05-07T12:02:47.749Z,5.97
2023-05-07T12:05:15.122Z,4.10
2023-05-07T12:07:42.268Z,6.72
2023-05-07T12:10:10.067Z,3.38
2023-05-07T12:12:43.091Z,6.30
2023-05-07T12:15:11.617Z,6.75
2023-05-07T12:17:39.305Z,4.68
2023-05-07T12:20:07.230Z,5.78
2023-05-07T12:22:34.554Z,9.65
2023-05-07T12:25:02.049Z,4.18
2023-05-07T12:27:31.743Z,5.60
2023-05-07T12:30:00.312Z,4.20
2023-05-07T12:32:27.646Z,5.03
2023-05-07T12:34:54.678Z,5.43
2023-05-07T12:37:32.347Z,7.53
2023-05-07T12:40:11.562Z,6.90
2023-05-07T12:42:39.649Z,5.30
2023-05-07T12:45:17.426Z,3.63
2023-05-07T12:47:48.524Z,8.45
2023-05-07T12:50:17.120Z,4.68
2023-05-07T12:52:49.586Z,7.68
2023-05-07T12:55:17.482Z,4.20
2023-05-07T12:57:49.681Z,5.10
2023-05-07T13:00:17.181Z,4.20
2023-05-07T13:02:48.194Z,4.20
2023-05-07T13:05:15.449Z,7.90
2023-05-07T13:07:42.787Z,5.15
2023-05-07T13:10:10.799Z,4.93
2023-05-07T13:12:37.901Z,4.60
2023-05-07T13:15:05.448Z,6.75
2023-05-07T13:17:59.903Z,3.80
2023-05-07T13:20:27.127Z,4.75
2023-05-07T13:22:54.205Z,8.75
2023-05-07T13:25:21.208Z,6.05
2023-05-07T13:27:53.826Z,4.72
2023-05-07T13:30:27.048Z,6.07
2023-05-07T13:32:57.010Z,8.88
2023-05-07T13:35:24.007Z,3.60
2023-05-07T13:37:51.168Z,6.72
2023-05-07T13:40:18.166Z,3.92
2023-05-07T13:42:47.473Z,5.43
2023-05-07T13:45:15.324Z,5.63
2023-05-07T13:47:43.355Z,6.35
2023-05-07T13:50:12.701Z,4.43
2023-05-07T13:52:41.740Z,5.10
2023-05-07T13:55:09.031Z,6.68
2023-05-07T13:57:40.080Z,8.23
2023-05-07T14:00:07.749Z,4.82
2023-05-07T14:02:36.227Z,3.30
2023-05-07T14:05:03.681Z,7.65
2023-05-07T14:07:30.753Z,3.95
2023-05-07T14:09:58.495Z,3.22
2023-05-07T14:12:25.873Z,4.90
2023-05-07T14:14:52.936Z,4.63
2023-05-07T14:17:20.444Z,8.95
2023-05-07T14:19:47.439Z,4.97
2023-05-07T14:22:15.760Z,2.65
2023-05-07T14:24:43.887Z,6.32
2023-05-07T14:27:11.019Z,5.43
2023-05-07T14:29:38.082Z,7.07
2023-05-07T14:32:05.304Z,3.58
2023-05-07T14:34:32.711Z,5.93
2023-05-07T14:37:01.233Z,7.78
2023-05-07T14:39:28.247Z,4.63
2023-05-07T14:41:57.099Z,4.88
2023-05-07T14:44:24.054Z,3.78
2023-05-07T14:46:51.681Z,8.25
2023-05-07T14:49:18.722Z,5.45
2023-05-07T14:51:48.683Z,3.63
2023-05-07T14:54:15.734Z,5.93
2023-05-07T14:56:43.321Z,3.55
2023-05-07T14:59:11.581Z,4.13
2023-05-07T15:01:38.965Z,5.38
2023-05-07T15:04:06.058Z,7.28
2023-05-07T15:06:33.551Z,4.60
2023-05-07T15:09:00.937Z,4.97
2023-05-07T15:11:30.488Z,3.33
2023-05-07T15:13:57.601Z,4.00
2023-05-07T15:16:25.236Z,8.00
2023-05-07T15:18:52.221Z,5.93
2023-05-07T15:21:19.468Z,5.35
2023-05-07T15:23:46.632Z,3.08
2023-05-07T15:26:14.075Z,5.90
2023-05-07T15:28:41.573Z,5.28
2023-05-07T15:31:08.597Z,5.13
2023-05-07T15:33:38.195Z,4.63
2023-05-07T15:36:06.097Z,3.00
2023-05-07T15:38:33.133Z,4.47
2023-05-07T15:41:00.231Z,3.38
2023-05-07T15:43:27.429Z,4.20
2023-05-07T15:45:54.600Z,3.85
2023-05-07T15:48:21.773Z,2.78
2023-05-07T15:50:48.992Z,4.78
2023-05-07T15:53:16.988Z,4.32
2023-05-07T15:55:44.522Z,5.13
2023-05-07T15:58:13.770Z,7.78
2023-05-07T16:00:41.670Z,8.65
2023-05-07T16:03:08.945Z,4.03
2023-05-07T16:05:36.125Z,7.97
2023-05-07T16:08:04.405Z,5.82
2023-05-07T16:10:31.590Z,4.10
2023-05-07T16:12:58.900Z,3.30
2023-05-07T16:15:26.002Z,7.53
2023-05-07T16:17:58.082Z,4.32
2023-05-07T16:20:32.631Z,7.00
2023-05-07T16:23:00.119Z,4.40
2023-05-07T16:25:27.147Z,7.93
2023-05-07T16:27:55.029Z,6.00
2023-05-07T16:30:22.267Z,6.45
2023-05-07T16:32:49.341Z,2.83
2023-05-07T16:35:16.979Z,3.97
2023-05-07T16:37:44.136Z,4.35
2023-05-07T16:40:11.482Z,9.68
2023-05-07T16:42:38.973Z,8.30
2023-05-07T16:45:06.916Z,6.97
2023-05-07T16:47:34.076Z,4.65
2023-05-07T16:50:01.434Z,4.88
2023-05-07T16:52:30.544Z,6.07
2023-05-07T16:55:00.988Z,2.67
2023-05-07T16:57:29.439Z,3.42
2023-05-07T16:59:57.398Z,3.85
2023-05-07T17:02:24.827Z,8.77
2023-05-07T17:04:51.965Z,5.35
2023-05-07T17:07:19.202Z,3.78
2023-05-07T17:09:46.277Z,5.88
2023-05-07T17:12:13.304Z,4.50
2023-05-07T17:14:40.553Z,3.75
2023-05-07T17:17:07.609Z,8.65
2023-05-07T17:19:37.976Z,6.60
2023-05-07T17:24:33.981Z,7.57
2023-05-07T17:27:01.125Z,5.05
2023-05-07T17:29:28.205Z,10.32
2023-05-07T17:31:55.436Z,6.78
2023-05-07T17:34:23.634Z,6.05
2023-05-07T17:36:50.638Z,10.80
2023-05-07T17:39:17.822Z,11.00
2023-05-07T17:41:45.184Z,12.20
2023-05-07T17:44:12.436Z,16.70
2023-05-07T17:46:39.559Z,13.10
2023-05-07T17:49:09.200Z,9.25
2023-05-07T17:51:46.225Z,20.80
2023-05-07T17:54:17.504Z,16.65
2023-05-07T17:56:44.662Z,18.45
2023-05-07T17:59:11.694Z,23.63
2023-05-07T18:01:39.014Z,12.30
2023-05-07T18:04:09.105Z,19.05
2023-05-07T18:06:36.353Z,41.47
2023-05-07T18:09:04.518Z,17.92
2023-05-07T18:11:33.626Z,17.65
2023-05-07T18:14:01.241Z,24.92
2023-05-07T18:16:28.423Z,19.02
2023-05-07T18:18:56.107Z,14.13
2023-05-07T18:21:23.235Z,9.60
2023-05-07T18:23:53.323Z,7.20
2023-05-07T18:26:21.564Z,8.52
2023-05-07T18:28:48.997Z,11.07
2023-05-07T18:31:16.450Z,9.32
2023-05-07T18:33:43.793Z,17.55
2023-05-07T18:36:11.064Z,18.63
2023-05-07T18:38:39.122Z,13.88
2023-05-07T18:41:06.340Z,20.30
2023-05-07T18:43:36.060Z,11.50
2023-05-07T18:46:03.216Z,8.98
2023-05-07T18:48:30.605Z,11.15
2023-05-07T18:50:57.848Z,13.57
2023-05-07T18:53:24.992Z,8.82
2023-05-07T18:55:55.482Z,12.90
2023-05-07T18:58:22.678Z,14.85
2023-05-07T19:00:50.367Z,16.75
2023-05-07T19:03:17.753Z,13.18
2023-05-07T19:05:45.667Z,18.13
2023-05-07T19:08:15.816Z,12.05
2023-05-07T19:10:43.377Z,13.80
2023-05-07T19:13:10.796Z,18.90
2023-05-07T19:15:38.124Z,20.73
2023-05-07T19:18:05.421Z,14.93
2023-05-07T19:20:32.583Z,19.40
2023-05-07T19:22:59.680Z,22.27
2023-05-07T19:25:26.677Z,21.52
2023-05-07T19:27:53.698Z,18.20
2023-05-07T19:30:20.838Z,19.25
2023-05-07T19:32:48.100Z,12.77
2023-05-07T19:35:16.621Z,23.65
2023-05-07T19:37:43.939Z,15.13
2023-05-07T19:40:12.381Z,22.42
2023-05-07T19:42:42.301Z,18.38
2023-05-07T19:45:11.030Z,30.42
2023-05-07T19:47:44.060Z,19.75
2023-05-07T19:53:03.981Z,24.42
2023-05-07T19:55:46.256Z,29.70
2023-05-07T19:58:19.414Z,23.55
2023-05-07T20:00:52.077Z,11.10
2023-05-07T20:03:27.253Z,14.48
2023-05-07T20:06:01.712Z,21.65
2023-05-07T20:08:34.295Z,18.77
2023-05-07T20:11:08.411Z,14.18
2023-05-07T20:13:45.760Z,17.77
2023-05-07T20:16:17.324Z,14.57
2023-05-07T20:18:56.209Z,16.38
2023-05-07T20:21:29.415Z,13.10
2023-05-07T20:24:04.742Z,15.75
2023-05-07T20:26:36.196Z,14.77
2023-05-07T20:29:10.231Z,16.25
2023-05-07T20:31:42.451Z,11.38
2023-05-07T20:34:12.521Z,12.55
2023-05-07T20:36:41.268Z,13.85
2023-05-07T20:39:24.727Z,14.27
2023-05-07T20:41:54.121Z,12.52
2023-05-07T20:44:24.642Z,12.82
2023-05-07T20:46:56.197Z,18.20
2023-05-07T20:49:28.047Z,17.23
2023-05-07T20:52:00.156Z,19.08
2023-05-07T20:54:29.740Z,12.00
2023-05-07T20:57:01.348Z,16.77
2023-05-07T20:59:35.943Z,13.55
2023-05-07T21:02:08.818Z,17.10
2023-05-07T21:04:48.628Z,18.17
2023-05-07T21:07:27.632Z,40.15
2023-05-07T21:10:02.643Z,40.60
2023-05-07T21:12:31.696Z,48.45
2023-05-07T21:15:02.955Z,42.63
2023-05-07T21:17:39.870Z,30.08
2023-05-07T21:20:12.255Z,26.48
2023-05-07T21:22:45.389Z,26.33
2023-05-07T21:25:23.436Z,23.80
2023-05-07T21:27:52.027Z,19.70
2023-05-07T21:30:21.080Z,28.55
2023-05-07T21:33:01.188Z,15.73
2023-05-07T21:35:38.759Z,20.60
2023-05-07T21:38:07.551Z,20.30
2023-05-07T21:40:59.859Z,21.17
2023-05-07T21:43:30.097Z,18.20
2023-05-07T21:46:09.196Z,17.20
2023-05-07T21:48:39.878Z,24.55
2023-05-07T21:51:10.777Z,17.40
2023-05-07T21:53:42.069Z,15.13
2023-05-07T21:56:12.815Z,20.50
2023-05-07T21:58:41.111Z,13.77
2023-05-07T22:01:17.773Z,15.68
2023-05-07T22:03:49.194Z,16.02
2023-05-07T22:06:23.450Z,17.60
2023-05-07T22:08:54.250Z,22.95
2023-05-07T22:11:25.687Z,21.20
2023-05-07T22:13:56.606Z,18.63
2023-05-07T22:16:27.114Z,15.02
2023-05-07T22:18:55.358Z,18.50
2023-05-07T22:21:26.584Z,19.65
2023-05-07T22:23:57.601Z,20.67
2023-05-07T22:26:32.804Z,21.52
2023-05-07T22:29:01.573Z,19.70
2023-05-07T22:37:00.320Z,22.52
2023-05-07T22:42:23.593Z,23.83
2023-05-07T22:44:58.386Z,27.58
2023-05-07T22:47:34.268Z,26.20
2023-05-07T22:52:58.683Z,29.13
2023-05-07T22:55:31.351Z,28.92
2023-05-07T22:58:13.389Z,28.90
2023-05-07T23:03:43.964Z,38.53
2023-05-07T23:06:19.198Z,39.60
2023-05-07T23:08:52.563Z,36.00
2023-05-07T23:14:14.027Z,44.97
2023-05-07T23:16:59.822Z,36.60
2023-05-07T23:19:28.222Z,43.85
2023-05-07T23:22:02.206Z,39.92
2023-05-07T23:24:35.273Z,41.20
2023-05-07T23:27:10.848Z,51.92
2023-05-07T23:29:48.959Z,44.63
2023-05-07T23:32:29.123Z,44.40
2023-05-07T23:37:47.435Z,45.42
2023-05-07T23:40:16.457Z,41.03
2023-05-07T23:42:50.112Z,42.03
2023-05-07T23:45:22.714Z,38.50
2023-05-07T23:47:51.968Z,32.00
2023-05-07T23:53:27.220Z,41.47
2023-05-07T23:55:59.665Z,39.45
2023-05-07T23:58:31.214Z,42.63
